sensor_id;sensor_type;location;lat;lon;timestamp;pressure;altitude;pressure_sealevel;temperature
21336;BMP180;69435;52.670;13.544;2023-06-14T00:01:53;101171.00;;;18.50
21336;BMP180;69435;52.670;13.544;2023-06-14T00:04:19;101170.00;;;18.50
21336;BMP180;69435;52.670;13.544;2023-06-14T00:06:47;101164.00;;;18.50
21336;BMP180;69435;52.670;13.544;2023-06-14T00:09:16;101144.00;;;18.40
21336;BMP180;69435;52.670;13.544;2023-06-14T00:11:43;101155.00;;;18.50
21336;BMP180;69435;52.670;13.544;2023-06-14T00:14:09;101164.00;;;18.50
21336;BMP180;69435;52.670;13.544;2023-06-14T00:16:36;101107.00;;;18.50
21336;BMP180;69435;52.670;13.544;2023-06-14T00:19:02;101176.00;;;18.40
21336;BMP180;69435;52.670;13.544;2023-06-14T00:21:32;101168.00;;;18.40
21336;BMP180;69435;52.670;13.544;2023-06-14T00:23:58;101166.00;;;18.40
21336;BMP180;69435;52.670;13.544;2023-06-14T00:26:24;101167.00;;;18.30
21336;BMP180;69435;52.670;13.544;2023-06-14T00:28:53;101176.00;;;18.30
21336;BMP180;69435;52.670;13.544;2023-06-14T00:31:25;101190.00;;;18.30
21336;BMP180;69435;52.670;13.544;2023-06-14T00:33:51;101189.00;;;18.30
21336;BMP180;69435;52.670;13.544;2023-06-14T00:36:16;101189.00;;;18.20
21336;BMP180;69435;52.670;13.544;2023-06-14T00:38:42;101165.00;;;18.20
21336;BMP180;69435;52.670;13.544;2023-06-14T00:41:08;101174.00;;;18.20
21336;BMP180;69435;52.670;13.544;2023-06-14T00:43:34;101180.00;;;18.20
21336;BMP180;69435;52.670;13.544;2023-06-14T00:46:00;101173.00;;;18.10
21336;BMP180;69435;52.670;13.544;2023-06-14T00:48:28;101182.00;;;18.10
21336;BMP180;69435;52.670;13.544;2023-06-14T00:50:55;101168.00;;;18.00
21336;BMP180;69435;52.670;13.544;2023-06-14T00:53:20;101181.00;;;18.00
21336;BMP180;69435;52.670;13.544;2023-06-14T00:55:49;101159.00;;;18.00
21336;BMP180;69435;52.670;13.544;2023-06-14T00:58:15;101185.00;;;17.90
21336;BMP180;69435;52.670;13.544;2023-06-14T01:00:42;101164.00;;;17.90
21336;BMP180;69435;52.670;13.544;2023-06-14T01:03:07;101173.00;;;17.90
21336;BMP180;69435;52.670;13.544;2023-06-14T01:05:38;101181.00;;;17.90
21336;BMP180;69435;52.670;13.544;2023-06-14T01:08:28;101187.00;;;17.90
21336;BMP180;69435;52.670;13.544;2023-06-14T01:11:07;101188.00;;;17.80
21336;BMP180;69435;52.670;13.544;2023-06-14T01:13:39;101181.00;;;17.80
21336;BMP180;69435;52.670;13.544;2023-06-14T01:16:07;101202.00;;;17.70
21336;BMP180;69435;52.670;13.544;2023-06-14T01:18:34;101174.00;;;17.70
21336;BMP180;69435;52.670;13.544;2023-06-14T01:21:01;101195.00;;;17.70
21336;BMP180;69435;52.670;13.544;2023-06-14T01:23:32;101184.00;;;17.60
21336;BMP180;69435;52.670;13.544;2023-06-14T01:26:00;101193.00;;;17.60
21336;BMP180;69435;52.670;13.544;2023-06-14T01:28:29;101169.00;;;17.60
21336;BMP180;69435;52.670;13.544;2023-06-14T01:31:02;101193.00;;;17.60
21336;BMP180;69435;52.670;13.544;2023-06-14T01:33:32;101197.00;;;17.60
21336;BMP180;69435;52.670;13.544;2023-06-14T01:36:01;101179.00;;;17.60
21336;BMP180;69435;52.670;13.544;2023-06-14T01:38:28;101182.00;;;17.60
21336;BMP180;69435;52.670;13.544;2023-06-14T01:40:57;101177.00;;;17.60
21336;BMP180;69435;52.670;13.544;2023-06-14T01:43:25;101173.00;;;17.50
21336;BMP180;69435;52.670;13.544;2023-06-14T01:45:54;101175.00;;;17.50
21336;BMP180;69435;52.670;13.544;2023-06-14T01:48:22;101194.00;;;17.50
21336;BMP180;69435;52.670;13.544;2023-06-14T01:50:49;101198.00;;;17.50
21336;BMP180;69435;52.670;13.544;2023-06-14T01:53:15;101187.00;;;17.40
21336;BMP180;69435;52.670;13.544;2023-06-14T01:55:41;101191.00;;;17.40
21336;BMP180;69435;52.670;13.544;2023-06-14T01:58:11;101171.00;;;17.40
21336;BMP180;69435;52.670;13.544;2023-06-14T02:00:38;101178.00;;;17.40
21336;BMP180;69435;52.670;13.544;2023-06-14T02:03:04;101166.00;;;17.30
21336;BMP180;69435;52.670;13.544;2023-06-14T02:05:30;101172.00;;;17.30
21336;BMP180;69435;52.670;13.544;2023-06-14T02:07:56;101165.00;;;17.30
21336;BMP180;69435;52.670;13.544;2023-06-14T02:10:22;101192.00;;;17.30
21336;BMP180;69435;52.670;13.544;2023-06-14T02:12:48;101195.00;;;17.30
21336;BMP180;69435;52.670;13.544;2023-06-14T02:15:14;101178.00;;;17.30
21336;BMP180;69435;52.670;13.544;2023-06-14T02:17:48;101174.00;;;17.30
21336;BMP180;69435;52.670;13.544;2023-06-14T02:20:17;101174.00;;;17.30
21336;BMP180;69435;52.670;13.544;2023-06-14T02:22:45;101191.00;;;17.20
21336;BMP180;69435;52.670;13.544;2023-06-14T02:25:11;101177.00;;;17.20
21336;BMP180;69435;52.670;13.544;2023-06-14T02:27:36;101177.00;;;17.20
21336;BMP180;69435;52.670;13.544;2023-06-14T02:30:03;101181.00;;;17.20
21336;BMP180;69435;52.670;13.544;2023-06-14T02:32:29;101179.00;;;17.20
21336;BMP180;69435;52.670;13.544;2023-06-14T02:34:55;101189.00;;;17.20
21336;BMP180;69435;52.670;13.544;2023-06-14T02:37:21;101174.00;;;17.20
21336;BMP180;69435;52.670;13.544;2023-06-14T02:39:47;101183.00;;;17.00
21336;BMP180;69435;52.670;13.544;2023-06-14T02:42:13;101196.00;;;17.20
21336;BMP180;69435;52.670;13.544;2023-06-14T02:44:39;101177.00;;;17.20
21336;BMP180;69435;52.670;13.544;2023-06-14T02:47:05;101179.00;;;17.20
21336;BMP180;69435;52.670;13.544;2023-06-14T02:49:31;101193.00;;;17.20
21336;BMP180;69435;52.670;13.544;2023-06-14T02:51:57;101174.00;;;17.20
21336;BMP180;69435;52.670;13.544;2023-06-14T02:54:23;101187.00;;;17.20
21336;BMP180;69435;52.670;13.544;2023-06-14T02:56:48;101176.00;;;17.20
21336;BMP180;69435;52.670;13.544;2023-06-14T02:59:14;101182.00;;;17.20
21336;BMP180;69435;52.670;13.544;2023-06-14T03:01:40;101184.00;;;17.10
21336;BMP180;69435;52.670;13.544;2023-06-14T03:04:08;101183.00;;;17.10
21336;BMP180;69435;52.670;13.544;2023-06-14T03:06:34;101176.00;;;17.10
21336;BMP180;69435;52.670;13.544;2023-06-14T03:09:03;101185.00;;;17.10
21336;BMP180;69435;52.670;13.544;2023-06-14T03:11:32;101179.00;;;17.10
21336;BMP180;69435;52.670;13.544;2023-06-14T03:13:58;101186.00;;;17.10
21336;BMP180;69435;52.670;13.544;2023-06-14T03:16:24;101169.00;;;17.00
21336;BMP180;69435;52.670;13.544;2023-06-14T03:18:51;101188.00;;;17.10
21336;BMP180;69435;52.670;13.544;2023-06-14T03:21:19;101175.00;;;17.10
21336;BMP180;69435;52.670;13.544;2023-06-14T03:23:47;101176.00;;;17.10
21336;BMP180;69435;52.670;13.544;2023-06-14T03:26:13;101156.00;;;17.10
21336;BMP180;69435;52.670;13.544;2023-06-14T03:28:42;101195.00;;;17.10
21336;BMP180;69435;52.670;13.544;2023-06-14T03:31:08;101194.00;;;17.10
21336;BMP180;69435;52.670;13.544;2023-06-14T03:33:34;101184.00;;;17.10
21336;BMP180;69435;52.670;13.544;2023-06-14T03:36:02;101184.00;;;17.10
21336;BMP180;69435;52.670;13.544;2023-06-14T03:38:28;101188.00;;;17.10
21336;BMP180;69435;52.670;13.544;2023-06-14T03:40:54;101176.00;;;17.20
21336;BMP180;69435;52.670;13.544;2023-06-14T03:43:20;101163.00;;;17.10
21336;BMP180;69435;52.670;13.544;2023-06-14T03:45:45;101188.00;;;17.20
21336;BMP180;69435;52.670;13.544;2023-06-14T03:48:11;101186.00;;;17.30
21336;BMP180;69435;52.670;13.544;2023-06-14T03:50:37;101186.00;;;17.30
21336;BMP180;69435;52.670;13.544;2023-06-14T03:53:04;101216.00;;;17.40
21336;BMP180;69435;52.670;13.544;2023-06-14T03:55:30;101207.00;;;17.40
21336;BMP180;69435;52.670;13.544;2023-06-14T03:57:59;101209.00;;;17.50
21336;BMP180;69435;52.670;13.544;2023-06-14T04:00:25;101209.00;;;17.50
21336;BMP180;69435;52.670;13.544;2023-06-14T04:02:52;101215.00;;;17.60
21336;BMP180;69435;52.670;13.544;2023-06-14T04:05:20;101208.00;;;17.60
21336;BMP180;69435;52.670;13.544;2023-06-14T04:07:46;101213.00;;;17.70
21336;BMP180;69435;52.670;13.544;2023-06-14T04:10:15;101211.00;;;17.70
21336;BMP180;69435;52.670;13.544;2023-06-14T04:12:42;101192.00;;;17.80
21336;BMP180;69435;52.670;13.544;2023-06-14T04:15:09;101199.00;;;17.90
21336;BMP180;69435;52.670;13.544;2023-06-14T04:17:36;101213.00;;;18.00
21336;BMP180;69435;52.670;13.544;2023-06-14T04:20:06;101218.00;;;18.10
21336;BMP180;69435;52.670;13.544;2023-06-14T04:22:38;101222.00;;;18.20
21336;BMP180;69435;52.670;13.544;2023-06-14T04:25:08;101227.00;;;18.20
21336;BMP180;69435;52.670;13.544;2023-06-14T04:27:37;101216.00;;;18.30
21336;BMP180;69435;52.670;13.544;2023-06-14T04:30:04;101221.00;;;18.30
21336;BMP180;69435;52.670;13.544;2023-06-14T04:32:32;101220.00;;;18.40
21336;BMP180;69435;52.670;13.544;2023-06-14T04:35:09;101243.00;;;18.50
21336;BMP180;69435;52.670;13.544;2023-06-14T04:37:37;101214.00;;;18.60
21336;BMP180;69435;52.670;13.544;2023-06-14T04:40:06;101198.00;;;18.60
21336;BMP180;69435;52.670;13.544;2023-06-14T04:42:33;101216.00;;;18.70
21336;BMP180;69435;52.670;13.544;2023-06-14T04:45:04;101177.00;;;18.80
21336;BMP180;69435;52.670;13.544;2023-06-14T04:47:30;101211.00;;;18.90
21336;BMP180;69435;52.670;13.544;2023-06-14T04:49:57;101239.00;;;18.90
21336;BMP180;69435;52.670;13.544;2023-06-14T04:52:23;101187.00;;;18.90
21336;BMP180;69435;52.670;13.544;2023-06-14T04:54:52;101239.00;;;19.10
21336;BMP180;69435;52.670;13.544;2023-06-14T04:57:27;101237.00;;;19.20
21336;BMP180;69435;52.670;13.544;2023-06-14T05:00:04;101227.00;;;19.30
21336;BMP180;69435;52.670;13.544;2023-06-14T05:02:35;101198.00;;;19.40
21336;BMP180;69435;52.670;13.544;2023-06-14T05:05:06;101196.00;;;19.40
21336;BMP180;69435;52.670;13.544;2023-06-14T05:07:33;101240.00;;;19.50
21336;BMP180;69435;52.670;13.544;2023-06-14T05:10:03;101218.00;;;19.70
21336;BMP180;69435;52.670;13.544;2023-06-14T05:12:29;101236.00;;;19.70
21336;BMP180;69435;52.670;13.544;2023-06-14T05:14:58;101218.00;;;19.80
21336;BMP180;69435;52.670;13.544;2023-06-14T05:17:28;101182.00;;;19.90
21336;BMP180;69435;52.670;13.544;2023-06-14T05:19:54;101199.00;;;20.00
21336;BMP180;69435;52.670;13.544;2023-06-14T05:22:21;101245.00;;;20.10
21336;BMP180;69435;52.670;13.544;2023-06-14T05:24:47;101250.00;;;20.30
21336;BMP180;69435;52.670;13.544;2023-06-14T05:27:14;101241.00;;;20.40
21336;BMP180;69435;52.670;13.544;2023-06-14T05:29:39;101234.00;;;20.60
21336;BMP180;69435;52.670;13.544;2023-06-14T05:32:06;101241.00;;;20.70
21336;BMP180;69435;52.670;13.544;2023-06-14T05:34:32;101232.00;;;20.90
21336;BMP180;69435;52.670;13.544;2023-06-14T05:36:58;101249.00;;;21.00
21336;BMP180;69435;52.670;13.544;2023-06-14T05:39:24;101254.00;;;21.10
21336;BMP180;69435;52.670;13.544;2023-06-14T05:41:50;101254.00;;;21.10
21336;BMP180;69435;52.670;13.544;2023-06-14T05:44:16;101257.00;;;21.40
21336;BMP180;69435;52.670;13.544;2023-06-14T05:46:41;101245.00;;;21.40
21336;BMP180;69435;52.670;13.544;2023-06-14T05:49:07;101262.00;;;21.40
21336;BMP180;69435;52.670;13.544;2023-06-14T05:51:33;101227.00;;;21.50
21336;BMP180;69435;52.670;13.544;2023-06-14T05:56:40;101192.00;;;21.80
21336;BMP180;69435;52.670;13.544;2023-06-14T05:59:06;101204.00;;;21.80
21336;BMP180;69435;52.670;13.544;2023-06-14T06:01:44;101223.00;;;21.90
21336;BMP180;69435;52.670;13.544;2023-06-14T06:04:10;101192.00;;;21.90
21336;BMP180;69435;52.670;13.544;2023-06-14T06:06:35;101222.00;;;22.00
21336;BMP180;69435;52.670;13.544;2023-06-14T06:09:01;101227.00;;;22.00
21336;BMP180;69435;52.670;13.544;2023-06-14T06:11:33;101264.00;;;22.00
21336;BMP180;69435;52.670;13.544;2023-06-14T06:13:59;101252.00;;;22.00
21336;BMP180;69435;52.670;13.544;2023-06-14T06:16:34;101281.00;;;22.00
21336;BMP180;69435;52.670;13.544;2023-06-14T06:19:01;101292.00;;;22.00
21336;BMP180;69435;52.670;13.544;2023-06-14T06:21:45;101250.00;;;22.10
21336;BMP180;69435;52.670;13.544;2023-06-14T06:24:29;101230.00;;;22.10
21336;BMP180;69435;52.670;13.544;2023-06-14T06:27:13;101270.00;;;22.10
21336;BMP180;69435;52.670;13.544;2023-06-14T06:29:49;101272.00;;;22.20
21336;BMP180;69435;52.670;13.544;2023-06-14T06:32:18;101238.00;;;22.00
21336;BMP180;69435;52.670;13.544;2023-06-14T06:35:02;101239.00;;;22.20
21336;BMP180;69435;52.670;13.544;2023-06-14T06:37:42;101265.00;;;22.30
21336;BMP180;69435;52.670;13.544;2023-06-14T06:40:09;101263.00;;;22.40
21336;BMP180;69435;52.670;13.544;2023-06-14T06:42:41;101240.00;;;22.50
21336;BMP180;69435;52.670;13.544;2023-06-14T06:45:22;101256.00;;;22.70
21336;BMP180;69435;52.670;13.544;2023-06-14T06:47:49;101253.00;;;22.90
21336;BMP180;69435;52.670;13.544;2023-06-14T06:50:21;101250.00;;;23.00
21336;BMP180;69435;52.670;13.544;2023-06-14T06:52:50;101263.00;;;23.20
21336;BMP180;69435;52.670;13.544;2023-06-14T06:55:35;101220.00;;;23.40
21336;BMP180;69435;52.670;13.544;2023-06-14T06:58:00;101219.00;;;23.50
21336;BMP180;69435;52.670;13.544;2023-06-14T07:00:26;101227.00;;;23.60
21336;BMP180;69435;52.670;13.544;2023-06-14T07:03:11;101271.00;;;23.70
21336;BMP180;69435;52.670;13.544;2023-06-14T07:05:43;101251.00;;;23.80
21336;BMP180;69435;52.670;13.544;2023-06-14T07:08:09;101236.00;;;23.90
21336;BMP180;69435;52.670;13.544;2023-06-14T07:10:34;101230.00;;;24.00
21336;BMP180;69435;52.670;13.544;2023-06-14T07:13:00;101198.00;;;24.10
21336;BMP180;69435;52.670;13.544;2023-06-14T07:15:26;101270.00;;;24.10
21336;BMP180;69435;52.670;13.544;2023-06-14T07:17:52;101264.00;;;24.20
21336;BMP180;69435;52.670;13.544;2023-06-14T07:20:18;101275.00;;;24.30
21336;BMP180;69435;52.670;13.544;2023-06-14T07:22:44;101276.00;;;24.40
21336;BMP180;69435;52.670;13.544;2023-06-14T07:25:12;101300.00;;;24.50
21336;BMP180;69435;52.670;13.544;2023-06-14T07:27:43;101245.00;;;24.60
21336;BMP180;69435;52.670;13.544;2023-06-14T07:30:17;101275.00;;;24.80
21336;BMP180;69435;52.670;13.544;2023-06-14T07:33:01;101269.00;;;24.90
21336;BMP180;69435;52.670;13.544;2023-06-14T07:35:27;101289.00;;;25.10
21336;BMP180;69435;52.670;13.544;2023-06-14T07:38:12;101272.00;;;25.40
21336;BMP180;69435;52.670;13.544;2023-06-14T07:40:37;101266.00;;;25.70
21336;BMP180;69435;52.670;13.544;2023-06-14T07:43:03;101274.00;;;25.90
21336;BMP180;69435;52.670;13.544;2023-06-14T07:45:44;101273.00;;;26.20
21336;BMP180;69435;52.670;13.544;2023-06-14T07:48:29;101287.00;;;26.50
21336;BMP180;69435;52.670;13.544;2023-06-14T07:50:55;101306.00;;;26.60
21336;BMP180;69435;52.670;13.544;2023-06-14T07:53:21;101287.00;;;26.80
21336;BMP180;69435;52.670;13.544;2023-06-14T07:55:49;101248.00;;;27.00
21336;BMP180;69435;52.670;13.544;2023-06-14T07:58:22;101304.00;;;27.20
21336;BMP180;69435;52.670;13.544;2023-06-14T08:00:53;101288.00;;;27.40
21336;BMP180;69435;52.670;13.544;2023-06-14T08:03:19;101276.00;;;27.70
21336;BMP180;69435;52.670;13.544;2023-06-14T08:05:45;101251.00;;;27.90
21336;BMP180;69435;52.670;13.544;2023-06-14T08:08:23;101248.00;;;28.10
21336;BMP180;69435;52.670;13.544;2023-06-14T08:10:48;101277.00;;;28.30
21336;BMP180;69435;52.670;13.544;2023-06-14T08:13:26;101287.00;;;28.70
21336;BMP180;69435;52.670;13.544;2023-06-14T08:15:52;101275.00;;;28.90
21336;BMP180;69435;52.670;13.544;2023-06-14T08:18:18;101280.00;;;29.10
21336;BMP180;69435;52.670;13.544;2023-06-14T08:20:44;101280.00;;;29.10
21336;BMP180;69435;52.670;13.544;2023-06-14T08:23:28;101248.00;;;29.10
21336;BMP180;69435;52.670;13.544;2023-06-14T08:25:54;101257.00;;;29.10
21336;BMP180;69435;52.670;13.544;2023-06-14T08:28:38;101280.00;;;29.10
21336;BMP180;69435;52.670;13.544;2023-06-14T08:31:04;101281.00;;;29.20
21336;BMP180;69435;52.670;13.544;2023-06-14T08:33:39;101303.00;;;29.10
21336;BMP180;69435;52.670;13.544;2023-06-14T08:36:08;101297.00;;;29.00
21336;BMP180;69435;52.670;13.544;2023-06-14T08:38:36;101263.00;;;28.90
21336;BMP180;69435;52.670;13.544;2023-06-14T08:41:05;101272.00;;;28.90
21336;BMP180;69435;52.670;13.544;2023-06-14T08:43:34;101261.00;;;28.80
21336;BMP180;69435;52.670;13.544;2023-06-14T08:46:04;101262.00;;;28.80
21336;BMP180;69435;52.670;13.544;2023-06-14T08:48:32;101214.00;;;28.40
21336;BMP180;69435;52.670;13.544;2023-06-14T08:51:03;101260.00;;;28.50
21336;BMP180;69435;52.670;13.544;2023-06-14T08:53:33;101251.00;;;28.70
21336;BMP180;69435;52.670;13.544;2023-06-14T08:56:00;101287.00;;;28.60
21336;BMP180;69435;52.670;13.544;2023-06-14T08:58:31;101261.00;;;28.40
21336;BMP180;69435;52.670;13.544;2023-06-14T09:01:02;101267.00;;;28.60
21336;BMP180;69435;52.670;13.544;2023-06-14T09:03:28;101247.00;;;28.60
21336;BMP180;69435;52.670;13.544;2023-06-14T09:05:58;101302.00;;;28.50
21336;BMP180;69435;52.670;13.544;2023-06-14T09:08:26;101253.00;;;28.50
21336;BMP180;69435;52.670;13.544;2023-06-14T09:11:02;101278.00;;;28.40
21336;BMP180;69435;52.670;13.544;2023-06-14T09:13:30;101285.00;;;28.40
21336;BMP180;69435;52.670;13.544;2023-06-14T09:16:00;101279.00;;;28.40
21336;BMP180;69435;52.670;13.544;2023-06-14T09:18:40;101283.00;;;28.50
21336;BMP180;69435;52.670;13.544;2023-06-14T09:21:24;101289.00;;;28.50
21336;BMP180;69435;52.670;13.544;2023-06-14T09:23:50;101293.00;;;28.60
21336;BMP180;69435;52.670;13.544;2023-06-14T09:26:39;101278.00;;;28.70
21336;BMP180;69435;52.670;13.544;2023-06-14T09:29:09;101294.00;;;28.70
21336;BMP180;69435;52.670;13.544;2023-06-14T09:31:54;101285.00;;;28.70
21336;BMP180;69435;52.670;13.544;2023-06-14T09:34:21;101278.00;;;28.80
21336;BMP180;69435;52.670;13.544;2023-06-14T09:36:49;101279.00;;;28.90
21336;BMP180;69435;52.670;13.544;2023-06-14T09:39:17;101292.00;;;29.00
21336;BMP180;69435;52.670;13.544;2023-06-14T09:41:49;101249.00;;;28.80
21336;BMP180;69435;52.670;13.544;2023-06-14T09:44:22;101304.00;;;28.70
21336;BMP180;69435;52.670;13.544;2023-06-14T09:46:51;101290.00;;;28.60
21336;BMP180;69435;52.670;13.544;2023-06-14T09:49:22;101282.00;;;28.50
21336;BMP180;69435;52.670;13.544;2023-06-14T09:51:54;101259.00;;;28.60
21336;BMP180;69435;52.670;13.544;2023-06-14T09:54:26;101279.00;;;28.50
21336;BMP180;69435;52.670;13.544;2023-06-14T09:56:54;101289.00;;;28.40
21336;BMP180;69435;52.670;13.544;2023-06-14T09:59:26;101303.00;;;28.30
21336;BMP180;69435;52.670;13.544;2023-06-14T10:01:59;101283.00;;;28.30
21336;BMP180;69435;52.670;13.544;2023-06-14T10:05:07;101297.00;;;28.20
21336;BMP180;69435;52.670;13.544;2023-06-14T10:07:47;101292.00;;;28.30
21336;BMP180;69435;52.670;13.544;2023-06-14T10:10:14;101290.00;;;28.30
21336;BMP180;69435;52.670;13.544;2023-06-14T10:12:49;101284.00;;;28.40
21336;BMP180;69435;52.670;13.544;2023-06-14T10:15:27;101303.00;;;28.50
21336;BMP180;69435;52.670;13.544;2023-06-14T10:18:11;101272.00;;;28.60
21336;BMP180;69435;52.670;13.544;2023-06-14T10:21:58;101299.00;;;28.80
21336;BMP180;69435;52.670;13.544;2023-06-14T10:24:20;101294.00;;;28.60
21336;BMP180;69435;52.670;13.544;2023-06-14T10:26:54;101303.00;;;28.80
21336;BMP180;69435;52.670;13.544;2023-06-14T10:29:20;101269.00;;;28.80
21336;BMP180;69435;52.670;13.544;2023-06-14T10:31:58;101290.00;;;29.10
21336;BMP180;69435;52.670;13.544;2023-06-14T10:34:31;101280.00;;;29.30
21336;BMP180;69435;52.670;13.544;2023-06-14T10:37:13;101264.00;;;29.60
21336;BMP180;69435;52.670;13.544;2023-06-14T10:39:58;101281.00;;;29.80
21336;BMP180;69435;52.670;13.544;2023-06-14T10:42:31;101275.00;;;30.10
21336;BMP180;69435;52.670;13.544;2023-06-14T10:45:16;101266.00;;;30.30
21336;BMP180;69435;52.670;13.544;2023-06-14T10:47:42;101244.00;;;30.50
21336;BMP180;69435;52.670;13.544;2023-06-14T10:50:14;101265.00;;;30.70
21336;BMP180;69435;52.670;13.544;2023-06-14T10:52:43;101277.00;;;30.80
21336;BMP180;69435;52.670;13.544;2023-06-14T10:55:17;101263.00;;;30.90
21336;BMP180;69435;52.670;13.544;2023-06-14T10:57:54;101252.00;;;31.10
21336;BMP180;69435;52.670;13.544;2023-06-14T11:00:33;101267.00;;;31.30
21336;BMP180;69435;52.670;13.544;2023-06-14T11:03:46;101238.00;;;31.60
21336;BMP180;69435;52.670;13.544;2023-06-14T11:06:47;101254.00;;;31.90
21336;BMP180;69435;52.670;13.544;2023-06-14T11:09:41;101249.00;;;32.20
21336;BMP180;69435;52.670;13.544;2023-06-14T11:12:17;101242.00;;;32.20
21336;BMP180;69435;52.670;13.544;2023-06-14T11:15:01;101252.00;;;32.20
21336;BMP180;69435;52.670;13.544;2023-06-14T11:17:51;101239.00;;;32.30
21336;BMP180;69435;52.670;13.544;2023-06-14T11:20:19;101244.00;;;32.10
21336;BMP180;69435;52.670;13.544;2023-06-14T11:22:45;101224.00;;;32.00
21336;BMP180;69435;52.670;13.544;2023-06-14T11:25:12;101231.00;;;31.90
21336;BMP180;69435;52.670;13.544;2023-06-14T11:27:57;101214.00;;;31.80
21336;BMP180;69435;52.670;13.544;2023-06-14T11:30:42;101221.00;;;31.80
21336;BMP180;69435;52.670;13.544;2023-06-14T11:33:10;101212.00;;;32.00
21336;BMP180;69435;52.670;13.544;2023-06-14T11:35:42;101234.00;;;32.20
21336;BMP180;69435;52.670;13.544;2023-06-14T11:38:10;101205.00;;;32.50
21336;BMP180;69435;52.670;13.544;2023-06-14T11:40:39;101230.00;;;32.80
21336;BMP180;69435;52.670;13.544;2023-06-14T11:43:05;101210.00;;;33.20
21336;BMP180;69435;52.670;13.544;2023-06-14T11:45:33;101210.00;;;33.50
21336;BMP180;69435;52.670;13.544;2023-06-14T11:48:18;101195.00;;;33.80
21336;BMP180;69435;52.670;13.544;2023-06-14T11:50:44;101173.00;;;34.10
21336;BMP180;69435;52.670;13.544;2023-06-14T11:53:10;101208.00;;;34.50
21336;BMP180;69435;52.670;13.544;2023-06-14T11:55:54;101188.00;;;34.90
21336;BMP180;69435;52.670;13.544;2023-06-14T11:58:20;101193.00;;;35.10
21336;BMP180;69435;52.670;13.544;2023-06-14T12:00:54;101181.00;;;35.30
21336;BMP180;69435;52.670;13.544;2023-06-14T12:03:25;101156.00;;;35.30
21336;BMP180;69435;52.670;13.544;2023-06-14T12:06:07;101174.00;;;35.40
21336;BMP180;69435;52.670;13.544;2023-06-14T12:08:38;101184.00;;;35.60
21336;BMP180;69435;52.670;13.544;2023-06-14T12:11:14;101174.00;;;35.60
21336;BMP180;69435;52.670;13.544;2023-06-14T12:13:49;101159.00;;;35.60
21336;BMP180;69435;52.670;13.544;2023-06-14T12:16:16;101177.00;;;35.70
21336;BMP180;69435;52.670;13.544;2023-06-14T12:18:53;101132.00;;;35.80
21336;BMP180;69435;52.670;13.544;2023-06-14T12:21:23;101173.00;;;35.90
21336;BMP180;69435;52.670;13.544;2023-06-14T12:23:49;101164.00;;;35.90
21336;BMP180;69435;52.670;13.544;2023-06-14T12:26:20;101166.00;;;35.80
21336;BMP180;69435;52.670;13.544;2023-06-14T12:29:06;101164.00;;;35.50
21336;BMP180;69435;52.670;13.544;2023-06-14T12:31:32;101165.00;;;35.30
21336;BMP180;69435;52.670;13.544;2023-06-14T12:34:01;101122.00;;;35.20
21336;BMP180;69435;52.670;13.544;2023-06-14T12:36:27;101148.00;;;34.90
21336;BMP180;69435;52.670;13.544;2023-06-14T12:38:53;101151.00;;;34.60
21336;BMP180;69435;52.670;13.544;2023-06-14T12:41:21;101147.00;;;34.40
21336;BMP180;69435;52.670;13.544;2023-06-14T12:43:48;101152.00;;;34.30
21336;BMP180;69435;52.670;13.544;2023-06-14T12:46:14;101164.00;;;34.00
21336;BMP180;69435;52.670;13.544;2023-06-14T12:48:51;101167.00;;;33.80
21336;BMP180;69435;52.670;13.544;2023-06-14T12:51:17;101169.00;;;33.50
21336;BMP180;69435;52.670;13.544;2023-06-14T12:53:43;101149.00;;;33.20
21336;BMP180;69435;52.670;13.544;2023-06-14T12:56:09;101144.00;;;32.90
21336;BMP180;69435;52.670;13.544;2023-06-14T12:58:53;101114.00;;;32.50
21336;BMP180;69435;52.670;13.544;2023-06-14T13:01:19;101155.00;;;32.20
21336;BMP180;69435;52.670;13.544;2023-06-14T13:03:48;101139.00;;;32.10
21336;BMP180;69435;52.670;13.544;2023-06-14T13:06:16;101144.00;;;31.90
21336;BMP180;69435;52.670;13.544;2023-06-14T13:08:41;101141.00;;;32.00
21336;BMP180;69435;52.670;13.544;2023-06-14T13:11:10;101127.00;;;32.10
21336;BMP180;69435;52.670;13.544;2023-06-14T13:13:35;101145.00;;;32.30
21336;BMP180;69435;52.670;13.544;2023-06-14T13:16:01;101129.00;;;32.50
21336;BMP180;69435;52.670;13.544;2023-06-14T13:18:29;101115.00;;;32.60
21336;BMP180;69435;52.670;13.544;2023-06-14T13:20:58;101132.00;;;32.60
21336;BMP180;69435;52.670;13.544;2023-06-14T13:23:42;101117.00;;;32.50
21336;BMP180;69435;52.670;13.544;2023-06-14T13:26:08;101092.00;;;32.40
21336;BMP180;69435;52.670;13.544;2023-06-14T13:28:39;101117.00;;;32.60
21336;BMP180;69435;52.670;13.544;2023-06-14T13:31:08;101102.00;;;32.70
21336;BMP180;69435;52.670;13.544;2023-06-14T13:33:41;101100.00;;;32.80
21336;BMP180;69435;52.670;13.544;2023-06-14T13:36:12;101088.00;;;32.80
21336;BMP180;69435;52.670;13.544;2023-06-14T13:38:38;101092.00;;;32.90
21336;BMP180;69435;52.670;13.544;2023-06-14T13:41:04;101151.00;;;32.70
21336;BMP180;69435;52.670;13.544;2023-06-14T13:43:30;101116.00;;;32.60
21336;BMP180;69435;52.670;13.544;2023-06-14T13:46:02;101121.00;;;32.40
21336;BMP180;69435;52.670;13.544;2023-06-14T13:48:27;101117.00;;;32.10
21336;BMP180;69435;52.670;13.544;2023-06-14T13:50:53;101130.00;;;31.90
21336;BMP180;69435;52.670;13.544;2023-06-14T13:53:19;101116.00;;;31.70
21336;BMP180;69435;52.670;13.544;2023-06-14T13:56:03;101121.00;;;31.50
21336;BMP180;69435;52.670;13.544;2023-06-14T13:58:38;101065.00;;;31.30
21336;BMP180;69435;52.670;13.544;2023-06-14T14:01:04;101121.00;;;31.20
21336;BMP180;69435;52.670;13.544;2023-06-14T14:03:30;101082.00;;;31.10
21336;BMP180;69435;52.670;13.544;2023-06-14T14:06:03;101130.00;;;31.30